sensor_id;sensor_type;location;lat;lon;timestamp;P1;durP1;ratioP1;P2;durP2;ratioP2
77586;SDS011;66744;49.716;17.158;2023-02-14T00:00:07;80.13;;;41.80;;
77586;SDS011;66744;49.716;17.158;2023-02-14T00:03:09;79.45;;;41.42;;
77586;SDS011;66744;49.716;17.158;2023-02-14T00:06:12;68.13;;;37.97;;
77586;SDS011;66744;49.716;17.158;2023-02-14T00:09:14;75.97;;;39.10;;
77586;SDS011;66744;49.716;17.158;2023-02-14T00:12:17;72.90;;;37.25;;
77586;SDS011;66744;49.716;17.158;2023-02-14T00:15:19;84.70;;;42.72;;
77586;SDS011;66744;49.716;17.158;2023-02-14T00:18:22;78.88;;;39.85;;
77586;SDS011;66744;49.716;17.158;2023-02-14T00:21:44;75.35;;;39.28;;
77586;SDS011;66744;49.716;17.158;2023-02-14T00:24:46;73.75;;;40.72;;
77586;SDS011;66744;49.716;17.158;2023-02-14T00:27:47;86.53;;;43.78;;
77586;SDS011;66744;49.716;17.158;2023-02-14T00:30:48;76.97;;;40.38;;
77586;SDS011;66744;49.716;17.158;2023-02-14T00:33:49;84.75;;;43.55;;
77586;SDS011;66744;49.716;17.158;2023-02-14T00:36:50;73.03;;;39.13;;
77586;SDS011;66744;49.716;17.158;2023-02-14T00:39:52;77.93;;;42.42;;
77586;SDS011;66744;49.716;17.158;2023-02-14T00:42:53;79.25;;;44.00;;
77586;SDS011;66744;49.716;17.158;2023-02-14T00:45:56;74.75;;;39.13;;
77586;SDS011;66744;49.716;17.158;2023-02-14T00:48:57;78.72;;;40.42;;
77586;SDS011;66744;49.716;17.158;2023-02-14T00:51:59;71.75;;;37.72;;
77586;SDS011;66744;49.716;17.158;2023-02-14T00:55:00;63.65;;;37.50;;
77586;SDS011;66744;49.716;17.158;2023-02-14T00:58:01;77.15;;;39.22;;
77586;SDS011;66744;49.716;17.158;2023-02-14T01:01:02;70.43;;;38.88;;
77586;SDS011;66744;49.716;17.158;2023-02-14T01:04:04;67.32;;;38.10;;
77586;SDS011;66744;49.716;17.158;2023-02-14T01:07:05;71.57;;;37.38;;
77586;SDS011;66744;49.716;17.158;2023-02-14T01:10:07;68.70;;;35.75;;
77586;SDS011;66744;49.716;17.158;2023-02-14T01:13:08;65.07;;;35.20;;
77586;SDS011;66744;49.716;17.158;2023-02-14T01:16:12;60.28;;;35.75;;
77586;SDS011;66744;49.716;17.158;2023-02-14T01:19:15;70.22;;;36.28;;
77586;SDS011;66744;49.716;17.158;2023-02-14T01:22:17;61.40;;;31.80;;
77586;SDS011;66744;49.716;17.158;2023-02-14T01:25:18;80.50;;;41.35;;
77586;SDS011;66744;49.716;17.158;2023-02-14T01:28:20;57.97;;;32.80;;
77586;SDS011;66744;49.716;17.158;2023-02-14T01:31:22;69.18;;;35.80;;
77586;SDS011;66744;49.716;17.158;2023-02-14T01:34:25;76.40;;;44.33;;
77586;SDS011;66744;49.716;17.158;2023-02-14T01:37:26;67.22;;;36.50;;
77586;SDS011;66744;49.716;17.158;2023-02-14T01:40:27;68.93;;;35.35;;
77586;SDS011;66744;49.716;17.158;2023-02-14T01:43:28;72.80;;;35.92;;
77586;SDS011;66744;49.716;17.158;2023-02-14T01:46:31;66.40;;;35.00;;
77586;SDS011;66744;49.716;17.158;2023-02-14T01:49:34;69.40;;;37.10;;
77586;SDS011;66744;49.716;17.158;2023-02-14T01:52:42;60.55;;;34.45;;
77586;SDS011;66744;49.716;17.158;2023-02-14T01:55:47;69.00;;;37.97;;
77586;SDS011;66744;49.716;17.158;2023-02-14T01:58:52;63.55;;;34.45;;
77586;SDS011;66744;49.716;17.158;2023-02-14T02:01:58;65.57;;;33.42;;
77586;SDS011;66744;49.716;17.158;2023-02-14T02:05:00;66.50;;;37.42;;
77586;SDS011;66744;49.716;17.158;2023-02-14T02:08:01;79.50;;;40.88;;
77586;SDS011;66744;49.716;17.158;2023-02-14T02:11:03;75.22;;;38.10;;
77586;SDS011;66744;49.716;17.158;2023-02-14T02:14:04;60.67;;;34.70;;
77586;SDS011;66744;49.716;17.158;2023-02-14T02:20:48;59.30;;;33.47;;
77586;SDS011;66744;49.716;17.158;2023-02-14T02:31:23;60.63;;;32.58;;
77586;SDS011;66744;49.716;17.158;2023-02-14T02:44:24;57.63;;;34.22;;
77586;SDS011;66744;49.716;17.158;2023-02-14T02:50:46;62.05;;;32.10;;
77586;SDS011;66744;49.716;17.158;2023-02-14T02:54:41;59.33;;;31.63;;
77586;SDS011;66744;49.716;17.158;2023-02-14T02:57:53;61.03;;;32.17;;
77586;SDS011;66744;49.716;17.158;2023-02-14T03:00:57;61.20;;;33.78;;
77586;SDS011;66744;49.716;17.158;2023-02-14T03:04:07;61.45;;;34.20;;
77586;SDS011;66744;49.716;17.158;2023-02-14T03:07:35;59.53;;;31.08;;
77586;SDS011;66744;49.716;17.158;2023-02-14T03:10:40;53.55;;;30.27;;
77586;SDS011;66744;49.716;17.158;2023-02-14T03:20:11;56.33;;;30.48;;
77586;SDS011;66744;49.716;17.158;2023-02-14T03:23:26;60.15;;;32.17;;
77586;SDS011;66744;49.716;17.158;2023-02-14T03:26:51;57.25;;;30.55;;
77586;SDS011;66744;49.716;17.158;2023-02-14T03:30:26;57.63;;;31.23;;
77586;SDS011;66744;49.716;17.158;2023-02-14T03:37:00;62.35;;;34.08;;
77586;SDS011;66744;49.716;17.158;2023-02-14T03:40:16;58.88;;;31.77;;
77586;SDS011;66744;49.716;17.158;2023-02-14T03:43:59;58.60;;;32.05;;
77586;SDS011;66744;49.716;17.158;2023-02-14T03:47:07;213.98;;;102.28;;
77586;SDS011;66744;49.716;17.158;2023-02-14T03:50:13;77.63;;;40.25;;
77586;SDS011;66744;49.716;17.158;2023-02-14T03:53:18;74.07;;;37.60;;
77586;SDS011;66744;49.716;17.158;2023-02-14T03:56:36;80.88;;;40.97;;
77586;SDS011;66744;49.716;17.158;2023-02-14T03:59:43;74.97;;;38.28;;
77586;SDS011;66744;49.716;17.158;2023-02-14T04:02:46;76.57;;;40.50;;
77586;SDS011;66744;49.716;17.158;2023-02-14T04:05:51;63.85;;;33.15;;
77586;SDS011;66744;49.716;17.158;2023-02-14T04:08:53;63.85;;;34.50;;
77586;SDS011;66744;49.716;17.158;2023-02-14T04:11:54;61.47;;;31.92;;
77586;SDS011;66744;49.716;17.158;2023-02-14T04:14:56;52.42;;;29.70;;
77586;SDS011;66744;49.716;17.158;2023-02-14T04:21:16;53.20;;;27.30;;
77586;SDS011;66744;49.716;17.158;2023-02-14T04:24:18;55.47;;;31.83;;
77586;SDS011;66744;49.716;17.158;2023-02-14T04:27:20;53.05;;;30.10;;
77586;SDS011;66744;49.716;17.158;2023-02-14T04:33:22;54.65;;;28.88;;
77586;SDS011;66744;49.716;17.158;2023-02-14T04:36:23;54.85;;;31.88;;
77586;SDS011;66744;49.716;17.158;2023-02-14T04:39:24;52.03;;;28.02;;
77586;SDS011;66744;49.716;17.158;2023-02-14T04:42:26;52.25;;;29.52;;
77586;SDS011;66744;49.716;17.158;2023-02-14T04:45:27;53.65;;;29.17;;
77586;SDS011;66744;49.716;17.158;2023-02-14T04:48:28;47.15;;;27.17;;
77586;SDS011;66744;49.716;17.158;2023-02-14T04:51:29;50.60;;;26.15;;
77586;SDS011;66744;49.716;17.158;2023-02-14T04:54:31;43.40;;;24.45;;
77586;SDS011;66744;49.716;17.158;2023-02-14T04:57:32;50.00;;;26.65;;
77586;SDS011;66744;49.716;17.158;2023-02-14T05:00:34;51.10;;;26.77;;
77586;SDS011;66744;49.716;17.158;2023-02-14T05:03:35;50.35;;;28.45;;
77586;SDS011;66744;49.716;17.158;2023-02-14T05:09:37;47.78;;;25.02;;
77586;SDS011;66744;49.716;17.158;2023-02-14T05:12:38;51.35;;;26.77;;
77586;SDS011;66744;49.716;17.158;2023-02-14T05:15:40;50.60;;;29.05;;
77586;SDS011;66744;49.716;17.158;2023-02-14T05:21:42;46.58;;;25.38;;
77586;SDS011;66744;49.716;17.158;2023-02-14T05:27:44;47.03;;;25.73;;
77586;SDS011;66744;49.716;17.158;2023-02-14T05:30:45;47.42;;;26.67;;
77586;SDS011;66744;49.716;17.158;2023-02-14T05:33:47;50.60;;;28.13;;
77586;SDS011;66744;49.716;17.158;2023-02-14T05:36:48;44.92;;;26.27;;
77586;SDS011;66744;49.716;17.158;2023-02-14T05:39:49;47.17;;;28.60;;
77586;SDS011;66744;49.716;17.158;2023-02-14T05:42:51;50.08;;;26.13;;
77586;SDS011;66744;49.716;17.158;2023-02-14T05:45:53;47.00;;;26.27;;
77586;SDS011;66744;49.716;17.158;2023-02-14T05:48:54;43.60;;;24.10;;
77586;SDS011;66744;49.716;17.158;2023-02-14T05:54:56;48.10;;;24.10;;
77586;SDS011;66744;49.716;17.158;2023-02-14T05:57:57;43.45;;;23.35;;
77586;SDS011;66744;49.716;17.158;2023-02-14T06:03:59;40.65;;;22.52;;
77586;SDS011;66744;49.716;17.158;2023-02-14T06:10:02;37.17;;;19.60;;
77586;SDS011;66744;49.716;17.158;2023-02-14T06:13:03;42.67;;;22.23;;
77586;SDS011;66744;49.716;17.158;2023-02-14T06:16:08;35.45;;;20.27;;
77586;SDS011;66744;49.716;17.158;2023-02-14T06:19:09;32.55;;;19.17;;
77586;SDS011;66744;49.716;17.158;2023-02-14T06:22:11;32.25;;;18.75;;
77586;SDS011;66744;49.716;17.158;2023-02-14T06:28:13;45.17;;;22.95;;
77586;SDS011;66744;49.716;17.158;2023-02-14T06:31:15;42.75;;;21.27;;
77586;SDS011;66744;49.716;17.158;2023-02-14T06:34:17;38.40;;;20.98;;
77586;SDS011;66744;49.716;17.158;2023-02-14T06:37:18;37.03;;;20.50;;
77586;SDS011;66744;49.716;17.158;2023-02-14T06:40:19;40.15;;;21.63;;
77586;SDS011;66744;49.716;17.158;2023-02-14T06:43:21;42.45;;;23.65;;
77586;SDS011;66744;49.716;17.158;2023-02-14T06:46:22;38.92;;;21.58;;
77586;SDS011;66744;49.716;17.158;2023-02-14T06:52:25;41.50;;;21.92;;
77586;SDS011;66744;49.716;17.158;2023-02-14T06:55:26;36.03;;;20.23;;
77586;SDS011;66744;49.716;17.158;2023-02-14T06:58:27;40.72;;;23.13;;
77586;SDS011;66744;49.716;17.158;2023-02-14T07:01:28;37.90;;;20.73;;
77586;SDS011;66744;49.716;17.158;2023-02-14T07:04:30;31.20;;;19.60;;
77586;SDS011;66744;49.716;17.158;2023-02-14T07:07:31;34.22;;;20.27;;
77586;SDS011;66744;49.716;17.158;2023-02-14T07:10:33;34.45;;;20.38;;
77586;SDS011;66744;49.716;17.158;2023-02-14T07:13:35;38.67;;;21.45;;
77586;SDS011;66744;49.716;17.158;2023-02-14T07:16:38;32.67;;;18.70;;
77586;SDS011;66744;49.716;17.158;2023-02-14T07:19:40;37.13;;;19.13;;
77586;SDS011;66744;49.716;17.158;2023-02-14T07:22:52;38.03;;;19.58;;
77586;SDS011;66744;49.716;17.158;2023-02-14T07:25:54;43.38;;;21.42;;
77586;SDS011;66744;49.716;17.158;2023-02-14T07:28:56;40.72;;;22.08;;
77586;SDS011;66744;49.716;17.158;2023-02-14T07:31:58;48.22;;;25.08;;
77586;SDS011;66744;49.716;17.158;2023-02-14T07:35:08;42.15;;;21.77;;
77586;SDS011;66744;49.716;17.158;2023-02-14T07:38:12;39.58;;;22.02;;
77586;SDS011;66744;49.716;17.158;2023-02-14T07:41:13;40.42;;;22.45;;
77586;SDS011;66744;49.716;17.158;2023-02-14T07:44:14;39.67;;;22.73;;
77586;SDS011;66744;49.716;17.158;2023-02-14T07:47:15;43.75;;;22.20;;
77586;SDS011;66744;49.716;17.158;2023-02-14T07:50:17;45.70;;;24.23;;
77586;SDS011;66744;49.716;17.158;2023-02-14T07:53:18;37.67;;;21.77;;
77586;SDS011;66744;49.716;17.158;2023-02-14T07:56:20;39.40;;;23.63;;
77586;SDS011;66744;49.716;17.158;2023-02-14T07:59:21;40.67;;;23.45;;
77586;SDS011;66744;49.716;17.158;2023-02-14T08:02:22;37.97;;;22.25;;
77586;SDS011;66744;49.716;17.158;2023-02-14T08:05:23;34.92;;;19.83;;
77586;SDS011;66744;49.716;17.158;2023-02-14T08:08:28;38.92;;;22.60;;
77586;SDS011;66744;49.716;17.158;2023-02-14T08:11:33;32.90;;;20.10;;
77586;SDS011;66744;49.716;17.158;2023-02-14T08:14:53;33.60;;;19.38;;
77586;SDS011;66744;49.716;17.158;2023-02-14T08:18:14;33.80;;;19.67;;
77586;SDS011;66744;49.716;17.158;2023-02-14T08:21:17;37.35;;;21.15;;
77586;SDS011;66744;49.716;17.158;2023-02-14T08:24:19;34.92;;;19.00;;
77586;SDS011;66744;49.716;17.158;2023-02-14T08:27:20;43.35;;;23.38;;
77586;SDS011;66744;49.716;17.158;2023-02-14T08:30:21;37.28;;;22.05;;
77586;SDS011;66744;49.716;17.158;2023-02-14T08:33:23;46.88;;;26.85;;
77586;SDS011;66744;49.716;17.158;2023-02-14T08:36:24;53.58;;;28.63;;
77586;SDS011;66744;49.716;17.158;2023-02-14T08:39:26;42.20;;;24.38;;
77586;SDS011;66744;49.716;17.158;2023-02-14T08:42:27;49.47;;;26.35;;
77586;SDS011;66744;49.716;17.158;2023-02-14T08:45:29;38.92;;;24.52;;
77586;SDS011;66744;49.716;17.158;2023-02-14T08:48:30;36.13;;;23.15;;
77586;SDS011;66744;49.716;17.158;2023-02-14T08:51:32;34.65;;;19.92;;
77586;SDS011;66744;49.716;17.158;2023-02-14T08:54:33;34.65;;;20.20;;
77586;SDS011;66744;49.716;17.158;2023-02-14T08:57:34;35.47;;;21.05;;
77586;SDS011;66744;49.716;17.158;2023-02-14T09:00:35;34.67;;;19.45;;
77586;SDS011;66744;49.716;17.158;2023-02-14T09:03:37;34.17;;;18.40;;
77586;SDS011;66744;49.716;17.158;2023-02-14T09:06:38;30.20;;;18.75;;
77586;SDS011;66744;49.716;17.158;2023-02-14T09:09:39;27.38;;;16.67;;
77586;SDS011;66744;49.716;17.158;2023-02-14T09:12:40;29.00;;;16.08;;
77586;SDS011;66744;49.716;17.158;2023-02-14T09:15:42;28.02;;;15.70;;
77586;SDS011;66744;49.716;17.158;2023-02-14T09:18:43;27.50;;;15.07;;
77586;SDS011;66744;49.716;17.158;2023-02-14T09:21:46;23.80;;;13.75;;
77586;SDS011;66744;49.716;17.158;2023-02-14T09:24:47;25.23;;;15.18;;
77586;SDS011;66744;49.716;17.158;2023-02-14T09:27:48;22.55;;;14.30;;
77586;SDS011;66744;49.716;17.158;2023-02-14T09:30:49;24.52;;;14.80;;
77586;SDS011;66744;49.716;17.158;2023-02-14T09:33:51;21.05;;;13.23;;
77586;SDS011;66744;49.716;17.158;2023-02-14T09:36:52;21.13;;;12.70;;
77586;SDS011;66744;49.716;17.158;2023-02-14T09:39:53;24.38;;;14.95;;
77586;SDS011;66744;49.716;17.158;2023-02-14T09:46:13;26.38;;;15.35;;
77586;SDS011;66744;49.716;17.158;2023-02-14T09:49:18;27.25;;;16.25;;
77586;SDS011;66744;49.716;17.158;2023-02-14T09:52:28;29.55;;;17.25;;
77586;SDS011;66744;49.716;17.158;2023-02-14T09:55:36;26.92;;;16.63;;
77586;SDS011;66744;49.716;17.158;2023-02-14T10:12:00;19.70;;;13.15;;
77586;SDS011;66744;49.716;17.158;2023-02-14T10:15:16;20.00;;;13.35;;
77586;SDS011;66744;49.716;17.158;2023-02-14T10:18:20;22.67;;;13.73;;
77586;SDS011;66744;49.716;17.158;2023-02-14T10:21:28;21.52;;;13.10;;
77586;SDS011;66744;49.716;17.158;2023-02-14T10:24:53;22.55;;;14.35;;
77586;SDS011;66744;49.716;17.158;2023-02-14T10:28:01;19.83;;;13.27;;
77586;SDS011;66744;49.716;17.158;2023-02-14T10:34:39;27.55;;;14.55;;
77586;SDS011;66744;49.716;17.158;2023-02-14T10:41:49;22.05;;;13.77;;
77586;SDS011;66744;49.716;17.158;2023-02-14T10:48:16;23.00;;;13.55;;
77586;SDS011;66744;49.716;17.158;2023-02-14T10:51:35;19.58;;;11.25;;
77586;SDS011;66744;49.716;17.158;2023-02-14T10:54:51;21.15;;;11.40;;
77586;SDS011;66744;49.716;17.158;2023-02-14T10:57:58;18.10;;;12.15;;
77586;SDS011;66744;49.716;17.158;2023-02-14T11:01:08;19.08;;;12.70;;
77586;SDS011;66744;49.716;17.158;2023-02-14T11:04:11;28.20;;;12.00;;
77586;SDS011;66744;49.716;17.158;2023-02-14T11:07:17;21.83;;;12.30;;
77586;SDS011;66744;49.716;17.158;2023-02-14T11:10:23;22.17;;;13.82;;
77586;SDS011;66744;49.716;17.158;2023-02-14T11:13:34;20.17;;;11.77;;
77586;SDS011;66744;49.716;17.158;2023-02-14T11:16:36;19.73;;;11.65;;
77586;SDS011;66744;49.716;17.158;2023-02-14T11:19:37;19.85;;;11.25;;
77586;SDS011;66744;49.716;17.158;2023-02-14T11:22:39;18.23;;;11.23;;
77586;SDS011;66744;49.716;17.158;2023-02-14T11:25:40;24.02;;;18.48;;
77586;SDS011;66744;49.716;17.158;2023-02-14T11:28:48;19.52;;;12.52;;
77586;SDS011;66744;49.716;17.158;2023-02-14T11:35:17;23.85;;;12.27;;
77586;SDS011;66744;49.716;17.158;2023-02-14T11:38:28;19.05;;;11.55;;
77586;SDS011;66744;49.716;17.158;2023-02-14T11:41:47;20.95;;;12.77;;
77586;SDS011;66744;49.716;17.158;2023-02-14T11:44:54;24.98;;;15.00;;
77586;SDS011;66744;49.716;17.158;2023-02-14T11:48:07;23.67;;;13.30;;
77586;SDS011;66744;49.716;17.158;2023-02-14T11:51:11;21.40;;;13.07;;
77586;SDS011;66744;49.716;17.158;2023-02-14T11:54:31;18.00;;;11.45;;
77586;SDS011;66744;49.716;17.158;2023-02-14T11:57:36;19.15;;;11.25;;
77586;SDS011;66744;49.716;17.158;2023-02-14T12:00:49;27.77;;;14.02;;
77586;SDS011;66744;49.716;17.158;2023-02-14T12:03:52;18.65;;;11.30;;
77586;SDS011;66744;49.716;17.158;2023-02-14T12:07:12;17.38;;;10.80;;
77586;SDS011;66744;49.716;17.158;2023-02-14T12:10:17;16.00;;;9.73;;
77586;SDS011;66744;49.716;17.158;2023-02-14T12:13:23;17.90;;;10.60;;
77586;SDS011;66744;49.716;17.158;2023-02-14T12:16:31;17.20;;;10.15;;
77586;SDS011;66744;49.716;17.158;2023-02-14T12:22:49;15.88;;;9.70;;
77586;SDS011;66744;49.716;17.158;2023-02-14T12:32:40;13.45;;;9.18;;
77586;SDS011;66744;49.716;17.158;2023-02-14T12:56:25;13.27;;;8.57;;
77586;SDS011;66744;49.716;17.158;2023-02-14T12:59:45;13.25;;;8.63;;
77586;SDS011;66744;49.716;17.158;2023-02-14T13:06:32;15.88;;;10.30;;
77586;SDS011;66744;49.716;17.158;2023-02-14T13:09:46;9.68;;;6.78;;
77586;SDS011;66744;49.716;17.158;2023-02-14T13:13:03;13.05;;;8.00;;
77586;SDS011;66744;49.716;17.158;2023-02-14T13:22:56;9.75;;;8.05;;
77586;SDS011;66744;49.716;17.158;2023-02-14T13:26:04;8.85;;;6.13;;
77586;SDS011;66744;49.716;17.158;2023-02-14T13:29:18;9.40;;;6.47;;
77586;SDS011;66744;49.716;17.158;2023-02-14T13:32:24;11.88;;;7.65;;
77586;SDS011;66744;49.716;17.158;2023-02-14T13:35:28;11.52;;;8.05;;
77586;SDS011;66744;49.716;17.158;2023-02-14T13:38:31;14.13;;;6.07;;
77586;SDS011;66744;49.716;17.158;2023-02-14T13:41:33;10.70;;;6.80;;
77586;SDS011;66744;49.716;17.158;2023-02-14T13:44:45;9.75;;;7.32;;
77586;SDS011;66744;49.716;17.158;2023-02-14T13:48:00;10.70;;;6.88;;
77586;SDS011;66744;49.716;17.158;2023-02-14T13:51:18;11.93;;;7.28;;
77586;SDS011;66744;49.716;17.158;2023-02-14T13:57:36;9.43;;;5.40;;
77586;SDS011;66744;49.716;17.158;2023-02-14T14:00:41;9.15;;;6.28;;
77586;SDS011;66744;49.716;17.158;2023-02-14T14:03:55;10.30;;;5.80;;
77586;SDS011;66744;49.716;17.158;2023-02-14T14:10:04;10.23;;;7.03;;
77586;SDS011;66744;49.716;17.158;2023-02-14T14:13:05;9.48;;;6.38;;
77586;SDS011;66744;49.716;17.158;2023-02-14T14:22:24;12.85;;;7.10;;
77586;SDS011;66744;49.716;17.158;2023-02-14T14:26:00;12.65;;;6.55;;
77586;SDS011;66744;49.716;17.158;2023-02-14T14:28:54;11.77;;;7.50;;
77586;SDS011;66744;49.716;17.158;2023-02-14T14:31:56;8.48;;;6.13;;
77586;SDS011;66744;49.716;17.158;2023-02-14T14:38:19;10.00;;;5.57;;
77586;SDS011;66744;49.716;17.158;2023-02-14T14:41:27;11.43;;;7.22;;
77586;SDS011;66744;49.716;17.158;2023-02-14T14:44:31;10.85;;;6.57;;
77586;SDS011;66744;49.716;17.158;2023-02-14T14:47:41;13.05;;;7.07;;
77586;SDS011;66744;49.716;17.158;2023-02-14T14:50:45;10.65;;;7.00;;
77586;SDS011;66744;49.716;17.158;2023-02-14T14:53:53;13.07;;;8.98;;
77586;SDS011;66744;49.716;17.158;2023-02-14T14:57:16;12.32;;;10.20;;
77586;SDS011;66744;49.716;17.158;2023-02-14T15:03:24;10.05;;;6.95;;
77586;SDS011;66744;49.716;17.158;2023-02-14T15:06:27;19.40;;;11.90;;
77586;SDS011;66744;49.716;17.158;2023-02-14T15:09:30;12.80;;;7.22;;
77586;SDS011;66744;49.716;17.158;2023-02-14T15:12:32;12.70;;;7.53;;
77586;SDS011;66744;49.716;17.158;2023-02-14T15:15:55;9.88;;;6.65;;
77586;SDS011;66744;49.716;17.158;2023-02-14T15:18:58;11.35;;;6.90;;
77586;SDS011;66744;49.716;17.158;2023-02-14T15:22:16;11.65;;;6.57;;
77586;SDS011;66744;49.716;17.158;2023-02-14T15:25:33;12.13;;;6.15;;
77586;SDS011;66744;49.716;17.158;2023-02-14T15:28:36;9.48;;;5.55;;
77586;SDS011;66744;49.716;17.158;2023-02-14T15:31:38;9.70;;;6.88;;
77586;SDS011;66744;49.716;17.158;2023-02-14T15:34:44;9.10;;;5.80;;
77586;SDS011;66744;49.716;17.158;2023-02-14T15:37:45;8.98;;;5.68;;
77586;SDS011;66744;49.716;17.158;2023-02-14T15:40:47;8.10;;;6.03;;
77586;SDS011;66744;49.716;17.158;2023-02-14T15:43:50;9.35;;;6.63;;
77586;SDS011;66744;49.716;17.158;2023-02-14T15:46:54;9.18;;;6.18;;
77586;SDS011;66744;49.716;17.158;2023-02-14T15:49:59;8.40;;;5.80;;
77586;SDS011;66744;49.716;17.158;2023-02-14T15:53:15;9.13;;;5.22;;
77586;SDS011;66744;49.716;17.158;2023-02-14T15:56:49;7.30;;;6.18;;
77586;SDS011;66744;49.716;17.158;2023-02-14T15:59:53;10.45;;;6.13;;
77586;SDS011;66744;49.716;17.158;2023-02-14T16:02:55;11.18;;;6.65;;
77586;SDS011;66744;49.716;17.158;2023-02-14T16:06:00;11.63;;;6.63;;
77586;SDS011;66744;49.716;17.158;2023-02-14T16:09:04;7.35;;;6.13;;
77586;SDS011;66744;49.716;17.158;2023-02-14T16:12:26;9.38;;;6.30;;
77586;SDS011;66744;49.716;17.158;2023-02-14T16:15:34;11.95;;;6.30;;
77586;SDS011;66744;49.716;17.158;2023-02-14T16:18:41;9.13;;;6.40;;
77586;SDS011;66744;49.716;17.158;2023-02-14T16:21:53;17.85;;;11.75;;
77586;SDS011;66744;49.716;17.158;2023-02-14T16:25:04;12.70;;;8.63;;
77586;SDS011;66744;49.716;17.158;2023-02-14T16:28:07;9.77;;;6.80;;
77586;SDS011;66744;49.716;17.158;2023-02-14T16:31:11;11.75;;;6.70;;
77586;SDS011;66744;49.716;17.158;2023-02-14T16:34:17;10.00;;;6.78;;
77586;SDS011;66744;49.716;17.158;2023-02-14T16:37:20;17.67;;;11.25;;
77586;SDS011;66744;49.716;17.158;2023-02-14T16:40:22;20.67;;;11.55;;
77586;SDS011;66744;49.716;17.158;2023-02-14T16:43:26;18.98;;;11.00;;
77586;SDS011;66744;49.716;17.158;2023-02-14T16:46:29;17.02;;;10.20;;
77586;SDS011;66744;49.716;17.158;2023-02-14T16:49:33;19.42;;;10.77;;
77586;SDS011;66744;49.716;17.158;2023-02-14T16:52:34;15.10;;;9.23;;
77586;SDS011;66744;49.716;17.158;2023-02-14T16:55:36;17.60;;;10.02;;
77586;SDS011;66744;49.716;17.158;2023-02-14T16:58:37;17.02;;;9.93;;
77586;SDS011;66744;49.716;17.158;2023-02-14T17:01:40;13.75;;;9.00;;
77586;SDS011;66744;49.716;17.158;2023-02-14T17:04:42;9.98;;;6.90;;
77586;SDS011;66744;49.716;17.158;2023-02-14T17:07:44;10.93;;;7.05;;
77586;SDS011;66744;49.716;17.158;2023-02-14T17:10:47;13.52;;;8.23;;
77586;SDS011;66744;49.716;17.158;2023-02-14T17:13:49;9.95;;;6.88;;
77586;SDS011;66744;49.716;17.158;2023-02-14T17:16:51;13.27;;;7.75;;
77586;SDS011;66744;49.716;17.158;2023-02-14T17:20:08;10.95;;;7.60;;
77586;SDS011;66744;49.716;17.158;2023-02-14T17:23:16;14.13;;;8.77;;
77586;SDS011;66744;49.716;17.158;2023-02-14T17:26:20;15.65;;;10.25;;
77586;SDS011;66744;49.716;17.158;2023-02-14T17:29:22;21.13;;;13.25;;
77586;SDS011;66744;49.716;17.158;2023-02-14T17:32:24;13.27;;;9.48;;
77586;SDS011;66744;49.716;17.158;2023-02-14T17:35:25;12.85;;;8.27;;
77586;SDS011;66744;49.716;17.158;2023-02-14T17:38:26;11.40;;;7.97;;
77586;SDS011;66744;49.716;17.158;2023-02-14T17:41:33;14.48;;;7.88;;
77586;SDS011;66744;49.716;17.158;2023-02-14T17:44:35;23.70;;;12.82;;
77586;SDS011;66744;49.716;17.158;2023-02-14T17:47:38;25.55;;;15.75;;
77586;SDS011;66744;49.716;17.158;2023-02-14T17:50:44;15.98;;;10.00;;
77586;SDS011;66744;49.716;17.158;2023-02-14T17:53:46;19.00;;;11.52;;
77586;SDS011;66744;49.716;17.158;2023-02-14T17:56:49;19.10;;;11.07;;
77586;SDS011;66744;49.716;17.158;2023-02-14T17:59:53;15.10;;;10.30;;
77586;SDS011;66744;49.716;17.158;2023-02-14T18:02:55;10.75;;;7.50;;
77586;SDS011;66744;49.716;17.158;2023-02-14T18:05:59;9.43;;;6.53;;
77586;SDS011;66744;49.716;17.158;2023-02-14T18:09:03;12.00;;;8.90;;
77586;SDS011;66744;49.716;17.158;2023-02-14T18:12:05;13.52;;;7.70;;
77586;SDS011;66744;49.716;17.158;2023-02-14T18:15:10;16.65;;;9.77;;
77586;SDS011;66744;49.716;17.158;2023-02-14T18:18:14;18.85;;;11.60;;
77586;SDS011;66744;49.716;17.158;2023-02-14T18:21:26;19.50;;;11.77;;
77586;SDS011;66744;49.716;17.158;2023-02-14T18:24:28;22.50;;;12.35;;
77586;SDS011;66744;49.716;17.158;2023-02-14T18:27:31;27.77;;;15.98;;
77586;SDS011;66744;49.716;17.158;2023-02-14T18:30:32;15.77;;;10.82;;
77586;SDS011;66744;49.716;17.158;2023-02-14T18:33:33;12.32;;;8.02;;
77586;SDS011;66744;49.716;17.158;2023-02-14T18:36:38;12.00;;;7.70;;
77586;SDS011;66744;49.716;17.158;2023-02-14T18:39:42;12.07;;;7.90;;
77586;SDS011;66744;49.716;17.158;2023-02-14T18:42:44;14.55;;;8.95;;
77586;SDS011;66744;49.716;17.158;2023-02-14T18:45:48;13.23;;;8.82;;
77586;SDS011;66744;49.716;17.158;2023-02-14T18:48:50;15.18;;;9.05;;
77586;SDS011;66744;49.716;17.158;2023-02-14T18:51:52;12.18;;;8.05;;
77586;SDS011;66744;49.716;17.158;2023-02-14T18:54:55;13.45;;;8.10;;
77586;SDS011;66744;49.716;17.158;2023-02-14T19:01:13;13.00;;;7.72;;
77586;SDS011;66744;49.716;17.158;2023-02-14T19:04:16;11.57;;;6.93;;
77586;SDS011;66744;49.716;17.158;2023-02-14T19:07:17;12.68;;;7.93;;
77586;SDS011;66744;49.716;17.158;2023-02-14T19:10:19;14.65;;;9.18;;
77586;SDS011;66744;49.716;17.158;2023-02-14T19:13:22;13.85;;;9.77;;
77586;SDS011;66744;49.716;17.158;2023-02-14T19:16:29;16.77;;;9.65;;
77586;SDS011;66744;49.716;17.158;2023-02-14T19:19:33;20.67;;;12.52;;
77586;SDS011;66744;49.716;17.158;2023-02-14T19:22:37;32.00;;;17.75;;
77586;SDS011;66744;49.716;17.158;2023-02-14T19:25:41;21.05;;;13.85;;
77586;SDS011;66744;49.716;17.158;2023-02-14T19:28:43;25.45;;;16.70;;
77586;SDS011;66744;49.716;17.158;2023-02-14T19:31:49;22.75;;;15.02;;
77586;SDS011;66744;49.716;17.158;2023-02-14T19:34:56;22.80;;;13.25;;
77586;SDS011;66744;49.716;17.158;2023-02-14T19:37:58;23.30;;;13.93;;
77586;SDS011;66744;49.716;17.158;2023-02-14T19:41:05;23.20;;;13.02;;
77586;SDS011;66744;49.716;17.158;2023-02-14T19:44:15;21.63;;;13.57;;
77586;SDS011;66744;49.716;17.158;2023-02-14T19:47:19;24.33;;;14.32;;
77586;SDS011;66744;49.716;17.158;2023-02-14T19:50:21;23.30;;;14.35;;
77586;SDS011;66744;49.716;17.158;2023-02-14T19:53:22;21.08;;;14.18;;
77586;SDS011;66744;49.716;17.158;2023-02-14T19:56:27;23.10;;;15.32;;
77586;SDS011;66744;49.716;17.158;2023-02-14T19:59:37;23.52;;;14.45;;
77586;SDS011;66744;49.716;17.158;2023-02-14T20:02:47;21.48;;;13.52;;
77586;SDS011;66744;49.716;17.158;2023-02-14T20:05:51;58.45;;;26.83;;
77586;SDS011;66744;49.716;17.158;2023-02-14T20:09:00;55.17;;;25.77;;
77586;SDS011;66744;49.716;17.158;2023-02-14T20:12:09;32.92;;;16.33;;
77586;SDS011;66744;49.716;17.158;2023-02-14T20:15:16;22.65;;;12.93;;
77586;SDS011;66744;49.716;17.158;2023-02-14T20:18:23;17.55;;;10.50;;
77586;SDS011;66744;49.716;17.158;2023-02-14T20:21:30;19.67;;;11.73;;
77586;SDS011;66744;49.716;17.158;2023-02-14T20:24:32;22.48;;;11.80;;
77586;SDS011;66744;49.716;17.158;2023-02-14T20:27:33;19.77;;;11.35;;
77586;SDS011;66744;49.716;17.158;2023-02-14T20:30:37;20.15;;;11.20;;